createdAt,value
2017-11-25T00:01:13.126Z,31.27
2017-11-25T00:03:42.203Z,22.73
2017-11-25T00:06:10.491Z,27.60
2017-11-25T00:08:38.811Z,34.20
2017-11-25T00:11:07.864Z,31.10
2017-11-25T00:13:36.167Z,33.80
2017-11-25T00:16:05.413Z,24.83
2017-11-25T00:18:33.696Z,27.43
2017-11-25T00:21:01.977Z,28.83
2017-11-25T00:23:30.317Z,31.93
2017-11-25T00:25:59.404Z,29.50
2017-11-25T00:28:27.699Z,30.63
2017-11-25T00:30:56.788Z,20.87
2017-11-25T00:33:25.462Z,18.10
2017-11-25T00:35:53.751Z,20.20
2017-11-25T00:38:22.079Z,17.30
2017-11-25T00:40:50.367Z,17.60
2017-11-25T00:43:18.651Z,20.20
2017-11-25T00:45:48.116Z,21.50
2017-11-25T00:48:16.396Z,17.90
2017-11-25T00:50:44.685Z,22.60
2017-11-25T00:53:13.797Z,22.33
2017-11-25T00:55:42.475Z,21.20
2017-11-25T00:58:10.784Z,18.87
2017-11-25T01:00:39.110Z,23.17
2017-11-25T01:03:07.389Z,18.93
2017-11-25T01:05:36.068Z,21.27
2017-11-25T01:08:05.160Z,12.47
2017-11-25T01:10:34.243Z,17.77
2017-11-25T01:13:02.538Z,17.50
2017-11-25T01:15:31.648Z,12.77
2017-11-25T01:17:59.923Z,16.90
2017-11-25T01:20:28.203Z,11.87
2017-11-25T01:22:57.643Z,12.63
2017-11-25T01:25:26.688Z,8.83
2017-11-25T01:27:54.967Z,16.23
2017-11-25T01:30:24.062Z,18.97
2017-11-25T01:32:52.343Z,11.73
2017-11-25T01:35:20.616Z,9.20
2017-11-25T01:37:48.955Z,11.07
2017-11-25T01:40:17.232Z,15.80
2017-11-25T01:42:45.535Z,27.90
2017-11-25T01:45:13.851Z,17.70
2017-11-25T01:47:42.131Z,17.73
2017-11-25T01:50:10.414Z,28.83
2017-11-25T01:52:38.783Z,28.90
2017-11-25T01:55:07.072Z,21.83
2017-11-25T01:57:35.352Z,27.90
2017-11-25T02:00:03.725Z,28.40
2017-11-25T02:02:32.017Z,26.27
2017-11-25T02:05:01.809Z,29.73
2017-11-25T02:07:30.152Z,27.10
2017-11-25T02:09:59.951Z,29.10
2017-11-25T02:12:28.235Z,25.90
2017-11-25T02:14:56.564Z,23.10
2017-11-25T02:17:24.879Z,21.63
2017-11-25T02:19:53.148Z,19.53
2017-11-25T02:22:23.106Z,22.43
2017-11-25T02:24:51.416Z,25.07
2017-11-25T02:27:19.708Z,27.00
2017-11-25T02:29:48.051Z,20.97
2017-11-25T02:32:16.757Z,14.43
2017-11-25T02:34:46.207Z,20.23
2017-11-25T02:37:14.698Z,16.40
2017-11-25T02:39:43.400Z,15.27
2017-11-25T02:42:11.680Z,19.00
2017-11-25T02:44:40.009Z,28.60
2017-11-25T02:47:09.432Z,32.90
2017-11-25T02:49:37.712Z,23.30
2017-11-25T02:52:06.078Z,27.07
2017-11-25T02:54:34.361Z,22.37
2017-11-25T02:57:02.640Z,28.03
2017-11-25T02:59:31.747Z,24.27
2017-11-25T03:02:01.621Z,17.10
2017-11-25T03:04:29.903Z,20.37
2017-11-25T03:06:59.015Z,20.70
2017-11-25T03:09:27.298Z,24.90
2017-11-25T03:11:55.607Z,23.00
2017-11-25T03:14:23.958Z,21.50
2017-11-25T03:16:53.004Z,35.73
2017-11-25T03:19:21.288Z,32.57
2017-11-25T03:21:49.619Z,31.33
2017-11-25T03:24:18.615Z,33.43
2017-11-25T03:26:47.693Z,33.60
2017-11-25T03:29:16.022Z,37.60
2017-11-25T03:31:44.323Z,29.67
2017-11-25T03:34:12.635Z,22.30
2017-11-25T03:36:40.971Z,22.10
2017-11-25T03:39:10.020Z,21.70
2017-11-25T03:41:39.070Z,20.93
2017-11-25T03:44:07.492Z,19.90
2017-11-25T03:46:35.776Z,21.30
2017-11-25T03:49:04.072Z,21.10
2017-11-25T03:51:32.405Z,24.10
2017-11-25T03:54:00.713Z,23.00
2017-11-25T03:56:29.017Z,17.20
2017-11-25T03:58:57.871Z,18.30
2017-11-25T04:01:26.929Z,24.57
2017-11-25T04:03:55.220Z,27.80
2017-11-25T04:06:26.033Z,16.73
2017-11-25T04:08:55.080Z,23.20
2017-11-25T04:11:24.739Z,21.13
2017-11-25T04:13:54.090Z,20.40
2017-11-25T04:16:22.371Z,22.80
2017-11-25T04:18:50.656Z,22.63
2017-11-25T04:21:20.150Z,21.20
2017-11-25T04:23:49.210Z,22.10
2017-11-25T04:26:17.500Z,21.33
2017-11-25T04:28:46.754Z,26.50
2017-11-25T04:31:15.031Z,27.33
2017-11-25T04:33:43.331Z,29.87
2017-11-25T04:36:11.815Z,26.23
2017-11-25T04:38:40.107Z,32.07
2017-11-25T04:41:08.802Z,25.87
2017-11-25T04:43:38.299Z,28.17
2017-11-25T04:46:06.576Z,40.77
2017-11-25T04:48:34.882Z,28.07
2017-11-25T04:51:03.336Z,31.07
2017-11-25T04:53:31.639Z,25.33
2017-11-25T04:55:59.922Z,25.03
2017-11-25T04:58:28.371Z,20.20
2017-11-25T05:00:56.657Z,24.23
2017-11-25T05:03:26.085Z,25.20
2017-11-25T05:05:55.205Z,29.53
2017-11-25T05:08:24.267Z,37.27
2017-11-25T05:10:52.557Z,28.77
2017-11-25T05:13:20.927Z,31.43
2017-11-25T05:15:49.234Z,35.27
2017-11-25T05:18:18.287Z,28.53
2017-11-25T05:20:47.745Z,25.07
2017-11-25T05:23:16.797Z,33.10
2017-11-25T05:25:46.433Z,35.27
2017-11-25T05:28:14.639Z,27.23
2017-11-25T05:30:43.706Z,34.10
2017-11-25T05:33:13.126Z,38.13
2017-11-25T05:35:41.463Z,29.83
2017-11-25T05:38:09.775Z,31.27
2017-11-25T05:40:38.056Z,33.13
2017-11-25T05:43:06.386Z,26.67
2017-11-25T05:45:34.693Z,36.20
2017-11-25T05:48:04.123Z,32.97
2017-11-25T05:50:33.814Z,32.20
2017-11-25T05:53:02.738Z,39.53
2017-11-25T05:55:31.019Z,29.80
2017-11-25T05:57:59.370Z,22.63
2017-11-25T06:00:27.666Z,25.63
2017-11-25T06:02:56.339Z,25.63
2017-11-25T06:05:24.676Z,28.90
2017-11-25T06:07:52.956Z,23.37
2017-11-25T06:10:21.239Z,26.13
2017-11-25T06:12:49.581Z,28.07
2017-11-25T06:15:17.862Z,24.33
2017-11-25T06:17:46.139Z,25.93
2017-11-25T06:20:15.270Z,21.57
2017-11-25T06:22:43.552Z,23.97
2017-11-25T06:28:11.974Z,28.10
2017-11-25T06:30:40.276Z,26.27
2017-11-25T06:33:09.940Z,23.13
2017-11-25T06:35:38.535Z,23.20
2017-11-25T06:38:07.951Z,24.87
2017-11-25T06:40:36.231Z,25.97
2017-11-25T06:43:04.563Z,19.90
2017-11-25T06:45:33.636Z,23.63
2017-11-25T06:48:02.307Z,26.37
2017-11-25T06:50:32.254Z,28.03
2017-11-25T06:53:00.814Z,25.67
2017-11-25T06:55:29.091Z,23.17
2017-11-25T06:57:57.416Z,20.50
2017-11-25T07:00:25.700Z,20.60
2017-11-25T07:02:53.980Z,15.27
2017-11-25T07:05:22.302Z,16.20
2017-11-25T07:07:51.940Z,13.97
2017-11-25T07:10:20.118Z,13.07
2017-11-25T07:12:48.455Z,18.23
2017-11-25T07:15:16.761Z,14.27
2017-11-25T07:17:45.802Z,15.40
2017-11-25T07:20:14.912Z,17.43
2017-11-25T07:22:43.191Z,15.20
2017-11-25T07:25:12.260Z,12.30
2017-11-25T07:27:41.347Z,12.37
2017-11-25T07:30:10.979Z,11.77
2017-11-25T07:32:40.481Z,11.20
2017-11-25T07:35:08.693Z,9.20
2017-11-25T07:37:36.979Z,8.43
2017-11-25T07:40:05.273Z,10.33
2017-11-25T07:42:33.579Z,8.00
2017-11-25T07:45:01.850Z,8.77
2017-11-25T07:47:31.290Z,13.60
2017-11-25T07:50:00.380Z,8.40
2017-11-25T07:52:30.021Z,8.23
2017-11-25T07:54:58.178Z,12.40
2017-11-25T07:57:26.506Z,14.70
2017-11-25T07:59:54.784Z,15.70
2017-11-25T08:02:23.847Z,12.77
2017-11-25T08:04:52.324Z,6.80
2017-11-25T08:07:21.732Z,10.60
2017-11-25T08:09:49.999Z,10.00
2017-11-25T08:12:19.087Z,15.70
2017-11-25T08:14:48.138Z,10.80
2017-11-25T08:17:17.179Z,8.00
2017-11-25T08:19:45.788Z,8.33
2017-11-25T08:22:14.454Z,12.83
2017-11-25T08:24:42.726Z,8.40
2017-11-25T08:27:11.067Z,10.40
2017-11-25T08:29:39.343Z,9.43
2017-11-25T08:32:07.611Z,9.10
2017-11-25T08:34:36.496Z,8.13
2017-11-25T08:37:05.894Z,7.80
2017-11-25T08:39:34.164Z,7.83
2017-11-25T08:42:02.493Z,7.80
2017-11-25T08:44:30.771Z,10.10
2017-11-25T08:46:59.830Z,13.23
2017-11-25T08:49:28.417Z,17.77
2017-11-25T08:51:58.051Z,11.33
2017-11-25T08:54:26.231Z,10.47
2017-11-25T08:56:54.555Z,14.03
2017-11-25T08:59:22.861Z,14.87
2017-11-25T09:01:51.132Z,14.10
2017-11-25T09:04:19.455Z,12.33
2017-11-25T09:06:47.739Z,15.67
2017-11-25T09:09:16.777Z,15.97
2017-11-25T09:11:45.123Z,21.37
2017-11-25T09:14:14.182Z,15.13
2017-11-25T09:16:43.811Z,12.97
2017-11-25T09:19:12.018Z,15.07
2017-11-25T09:21:40.304Z,15.73
2017-11-25T09:24:08.603Z,16.07
2017-11-25T09:26:37.691Z,14.10
2017-11-25T09:29:06.003Z,16.40
2017-11-25T09:31:35.658Z,17.23
2017-11-25T09:34:03.867Z,16.03
2017-11-25T09:36:32.162Z,17.20
2017-11-25T09:39:01.795Z,15.53
2017-11-25T09:41:30.414Z,15.33
2017-11-25T09:43:59.456Z,14.77
2017-11-25T09:46:28.519Z,15.20
2017-11-25T09:48:57.252Z,16.70
2017-11-25T09:51:25.581Z,15.77
2017-11-25T09:53:53.854Z,15.33
2017-11-25T09:56:23.463Z,17.57
2017-11-25T09:58:51.740Z,22.80
2017-11-25T10:01:20.034Z,13.90
2017-11-25T10:03:48.352Z,15.70
2017-11-25T10:06:17.415Z,16.80
2017-11-25T10:08:46.462Z,15.97
2017-11-25T10:11:14.791Z,17.40
2017-11-25T10:13:44.441Z,12.90
2017-11-25T10:16:13.751Z,12.37
2017-11-25T10:18:42.102Z,12.40
2017-11-25T10:21:10.775Z,11.97
2017-11-25T10:23:39.050Z,12.17
2017-11-25T10:26:08.495Z,11.87
2017-11-25T10:28:36.820Z,11.10
2017-11-25T10:31:05.099Z,14.27
2017-11-25T10:33:33.390Z,8.90
2017-11-25T10:36:01.720Z,9.60
2017-11-25T10:38:33.726Z,9.47
2017-11-25T10:41:02.167Z,8.67
2017-11-25T10:43:31.566Z,7.20
2017-11-25T10:46:00.983Z,10.10
2017-11-25T10:48:29.299Z,9.63
2017-11-25T10:50:58.923Z,9.03
2017-11-25T10:53:27.482Z,8.67
2017-11-25T10:55:55.965Z,7.60
2017-11-25T10:58:24.995Z,7.80
2017-11-25T11:00:53.668Z,9.27
2017-11-25T11:03:21.997Z,9.37
2017-11-25T11:05:51.051Z,8.50
2017-11-25T11:08:20.822Z,9.53
2017-11-25T11:10:49.291Z,7.30
2017-11-25T11:13:19.096Z,7.37
2017-11-25T11:15:48.526Z,7.30
2017-11-25T11:18:17.639Z,7.30
2017-11-25T11:20:47.070Z,10.17
2017-11-25T11:23:16.107Z,7.70
2017-11-25T11:25:46.314Z,7.97
2017-11-25T11:28:14.909Z,8.77
2017-11-25T11:30:46.470Z,8.40
2017-11-25T11:33:15.159Z,12.57
2017-11-25T11:35:43.431Z,11.40
2017-11-25T11:38:13.119Z,9.50
2017-11-25T11:40:41.667Z,10.40
2017-11-25T11:43:11.296Z,10.43
2017-11-25T11:45:39.910Z,9.50
2017-11-25T11:48:09.688Z,8.93
2017-11-25T11:50:37.954Z,9.33
2017-11-25T11:53:07.046Z,8.73
2017-11-25T11:55:35.334Z,7.53
2017-11-25T11:58:04.961Z,8.27
2017-11-25T12:00:33.161Z,8.70
2017-11-25T12:03:01.427Z,7.70
2017-11-25T12:05:29.722Z,8.10
2017-11-25T12:07:58.812Z,7.93
2017-11-25T12:10:27.856Z,8.80
2017-11-25T12:12:56.127Z,13.53
2017-11-25T12:15:25.845Z,7.10
2017-11-25T12:17:55.135Z,7.33
2017-11-25T12:20:23.404Z,6.80
2017-11-25T12:22:51.995Z,6.87
2017-11-25T12:25:20.281Z,6.77
2017-11-25T12:27:49.702Z,6.63
2017-11-25T12:30:18.186Z,6.43
2017-11-25T12:32:46.474Z,9.20
2017-11-25T12:35:16.243Z,7.77
2017-11-25T12:37:44.558Z,9.77
2017-11-25T12:40:12.836Z,8.60
2017-11-25T12:42:41.104Z,7.80
2017-11-25T12:45:12.482Z,8.73
2017-11-25T12:47:41.152Z,8.63
2017-11-25T12:50:09.423Z,8.97
2017-11-25T12:52:37.746Z,8.97
2017-11-25T12:55:06.030Z,9.77
2017-11-25T12:57:35.082Z,11.57
2017-11-25T13:00:03.434Z,11.00
2017-11-25T13:02:33.215Z,10.33
2017-11-25T13:05:01.496Z,9.90
2017-11-25T13:07:29.819Z,9.37
2017-11-25T13:09:58.102Z,8.73
2017-11-25T13:12:26.385Z,8.87
2017-11-25T13:14:54.708Z,11.17
2017-11-25T13:17:23.004Z,10.67
2017-11-25T13:19:52.059Z,10.70
2017-11-25T13:22:20.927Z,8.43
2017-11-25T13:24:50.704Z,9.17
2017-11-25T13:27:18.972Z,9.90
2017-11-25T13:29:47.278Z,13.40
2017-11-25T13:32:15.556Z,10.23
2017-11-25T13:34:44.603Z,10.70
2017-11-25T13:37:12.934Z,10.00
2017-11-25T13:39:41.209Z,23.83
2017-11-25T13:42:10.830Z,9.63
2017-11-25T13:44:39.797Z,9.07
2017-11-25T13:47:09.205Z,9.50
2017-11-25T13:49:37.480Z,10.63
2017-11-25T13:52:05.818Z,11.93
2017-11-25T13:54:34.092Z,10.27
2017-11-25T13:57:02.368Z,9.73
2017-11-25T13:59:31.838Z,15.20
2017-11-25T14:02:00.112Z,9.20
2017-11-25T14:04:29.158Z,9.23
2017-11-25T14:06:58.859Z,9.07
2017-11-25T14:09:28.479Z,10.20
2017-11-25T14:11:57.040Z,10.90
2017-11-25T14:14:26.885Z,11.07
2017-11-25T14:16:55.451Z,11.03
2017-11-25T14:19:23.741Z,13.43
2017-11-25T14:21:53.028Z,10.70
2017-11-25T14:24:21.965Z,10.50
2017-11-25T14:26:51.763Z,10.63
2017-11-25T14:29:21.251Z,8.67
2017-11-25T14:31:49.522Z,23.50
2017-11-25T14:34:17.804Z,15.20
2017-11-25T14:36:46.292Z,9.90
2017-11-25T14:39:15.727Z,9.70
2017-11-25T14:41:44.017Z,11.23
2017-11-25T14:44:12.749Z,10.53
2017-11-25T14:46:41.028Z,11.60
2017-11-25T14:49:10.666Z,15.30
2017-11-25T14:51:40.877Z,10.03
2017-11-25T14:54:09.479Z,12.33
2017-11-25T14:56:38.517Z,11.57
2017-11-25T14:59:07.627Z,13.87
2017-11-25T15:01:36.690Z,15.67
2017-11-25T15:04:05.045Z,11.10
2017-11-25T15:06:34.155Z,12.60
2017-11-25T15:09:03.801Z,11.67
2017-11-25T15:11:33.181Z,10.13
2017-11-25T15:14:01.628Z,10.97
2017-11-25T15:16:29.898Z,10.10
2017-11-25T15:18:59.278Z,13.30
2017-11-25T15:21:28.052Z,12.40
2017-11-25T15:23:57.326Z,12.40
2017-11-25T15:26:26.054Z,11.53
2017-11-25T15:28:54.401Z,13.57
2017-11-25T15:31:22.787Z,11.43
2017-11-25T15:33:52.414Z,12.70
2017-11-25T15:36:21.246Z,12.23
2017-11-25T15:38:51.182Z,13.53
2017-11-25T15:41:20.355Z,14.07
2017-11-25T15:43:49.979Z,13.10
2017-11-25T15:46:19.780Z,12.60
2017-11-25T15:48:49.254Z,12.10
2017-11-25T15:51:17.545Z,10.60
2017-11-25T15:53:45.990Z,4.77
2017-11-25T15:56:15.229Z,3.53
2017-11-25T15:58:43.530Z,2.70
2017-11-25T16:01:11.803Z,2.57
2017-11-25T16:03:40.235Z,2.10
2017-11-25T16:06:08.504Z,2.87
2017-11-25T16:08:36.776Z,9.83
2017-11-25T16:11:07.185Z,1.80
2017-11-25T16:13:36.588Z,2.20
2017-11-25T16:16:04.889Z,1.50
2017-11-25T16:18:33.209Z,2.43
2017-11-25T16:21:02.982Z,2.03
2017-11-25T16:23:31.522Z,1.47
2017-11-25T16:26:01.287Z,2.63
2017-11-25T16:28:30.319Z,1.63
2017-11-25T16:30:58.617Z,2.23
2017-11-25T16:33:28.686Z,1.60
2017-11-25T16:35:57.225Z,3.60
2017-11-25T16:38:25.523Z,2.77
2017-11-25T16:40:53.975Z,2.97
2017-11-25T16:43:22.256Z,3.13
2017-11-25T16:45:51.310Z,3.03
2017-11-25T16:48:19.876Z,5.97
2017-11-25T16:50:48.152Z,2.93
2017-11-25T16:53:17.775Z,3.07
2017-11-25T16:55:46.394Z,5.43
2017-11-25T16:58:16.037Z,5.87
2017-11-25T17:00:44.987Z,3.57
2017-11-25T17:03:15.068Z,3.50
2017-11-25T17:05:43.230Z,2.63
2017-11-25T17:08:11.516Z,5.13
2017-11-25T17:10:40.595Z,2.60
2017-11-25T17:13:10.377Z,3.37
2017-11-25T17:15:41.093Z,3.93
2017-11-25T17:18:09.373Z,5.00
2017-11-25T17:20:37.670Z,2.73
2017-11-25T17:23:06.027Z,2.87
2017-11-25T17:25:35.796Z,4.50
2017-11-25T17:28:04.088Z,2.63
2017-11-25T17:30:32.571Z,4.63
2017-11-25T17:33:02.016Z,2.33
2017-11-25T17:35:31.653Z,1.90
2017-11-25T17:38:00.383Z,8.00
2017-11-25T17:40:28.700Z,2.30
2017-11-25T17:42:56.984Z,2.70
2017-11-25T17:45:26.459Z,2.50
2017-11-25T17:47:55.148Z,2.33
2017-11-25T17:50:23.458Z,4.00
2017-11-25T17:52:52.560Z,3.10
2017-11-25T17:55:22.339Z,2.33
2017-11-25T17:57:50.625Z,2.77
2017-11-25T18:00:18.969Z,2.90
2017-11-25T18:02:48.590Z,3.50
2017-11-25T18:05:17.135Z,4.33
2017-11-25T18:07:45.855Z,4.77
2017-11-25T18:10:14.131Z,9.50
2017-11-25T18:12:43.531Z,4.93
2017-11-25T18:15:11.850Z,5.10
2017-11-25T18:17:40.136Z,4.70
2017-11-25T18:20:08.428Z,7.47
2017-11-25T18:22:37.132Z,4.90
2017-11-25T18:25:05.842Z,5.83
2017-11-25T18:27:34.115Z,6.60
2017-11-25T18:30:06.179Z,5.00
2017-11-25T18:32:34.479Z,6.43
2017-11-25T18:35:03.514Z,6.40
2017-11-25T18:37:32.236Z,4.30
2017-11-25T18:40:00.533Z,5.37
2017-11-25T18:42:29.588Z,4.67
2017-11-25T18:44:58.658Z,8.60
2017-11-25T18:47:27.761Z,8.10
2017-11-25T18:49:56.035Z,5.73
2017-11-25T18:52:25.115Z,5.37
2017-11-25T18:54:54.151Z,4.60
2017-11-25T18:57:23.842Z,5.20
2017-11-25T18:59:53.767Z,4.87
2017-11-25T19:02:22.357Z,4.73
2017-11-25T19:04:50.663Z,4.37
2017-11-25T19:07:19.705Z,4.90
2017-11-25T19:09:48.106Z,5.10
2017-11-25T19:12:17.201Z,4.73
2017-11-25T19:14:46.635Z,5.57
2017-11-25T19:17:16.129Z,6.90
2017-11-25T19:19:44.433Z,4.30
2017-11-25T19:22:12.702Z,8.50
2017-11-25T19:24:41.016Z,4.43
2017-11-25T19:27:09.304Z,5.77
2017-11-25T19:29:37.723Z,6.10
2017-11-25T19:32:06.099Z,4.67
2017-11-25T19:34:35.181Z,6.10
2017-11-25T19:37:03.475Z,5.83
2017-11-25T19:39:31.788Z,5.90
2017-11-25T19:42:00.058Z,7.07
2017-11-25T19:44:28.336Z,5.57
2017-11-25T19:46:58.000Z,6.80
2017-11-25T19:49:26.567Z,6.83
2017-11-25T19:51:54.832Z,8.40
2017-11-25T19:54:24.633Z,7.40
2017-11-25T19:56:53.684Z,6.40
2017-11-25T19:59:21.961Z,7.80
2017-11-25T20:01:50.268Z,6.40
2017-11-25T20:04:18.955Z,6.87
2017-11-25T20:06:48.433Z,7.10
2017-11-25T20:09:17.918Z,7.40
2017-11-25T20:11:46.628Z,5.57
2017-11-25T20:14:15.341Z,13.10
2017-11-25T20:16:45.162Z,6.23
2017-11-25T20:19:13.436Z,6.90
2017-11-25T20:21:41.713Z,6.67
2017-11-25T20:24:10.507Z,6.43
2017-11-25T20:26:39.213Z,15.20
2017-11-25T20:29:08.251Z,6.80
2017-11-25T20:31:36.621Z,11.00
2017-11-25T20:34:06.251Z,7.63
2017-11-25T20:36:34.792Z,6.07
2017-11-25T20:39:04.116Z,8.57
2017-11-25T20:41:33.960Z,7.63
2017-11-25T20:44:02.226Z,7.80
2017-11-25T20:46:30.579Z,8.27
2017-11-25T20:48:58.852Z,12.70
2017-11-25T20:51:28.255Z,8.30
2017-11-25T20:53:56.572Z,8.33
2017-11-25T20:56:24.866Z,11.87
2017-11-25T20:58:53.144Z,9.93
2017-11-25T21:01:21.495Z,11.10
2017-11-25T21:03:51.154Z,12.90
2017-11-25T21:06:19.762Z,8.27
2017-11-25T21:08:48.478Z,8.17
2017-11-25T21:11:17.148Z,8.20
2017-11-25T21:13:45.483Z,9.23
2017-11-25T21:16:13.791Z,8.60
2017-11-25T21:18:42.101Z,6.57
2017-11-25T21:21:11.491Z,5.80
2017-11-25T21:23:39.808Z,7.23
2017-11-25T21:26:08.076Z,6.50
2017-11-25T21:28:36.335Z,8.07
2017-11-25T21:31:04.700Z,6.30
2017-11-25T21:33:34.124Z,9.80
2017-11-25T21:36:02.396Z,7.10
2017-11-25T21:38:31.517Z,8.97
2017-11-25T21:41:00.967Z,8.20
2017-11-25T21:43:29.999Z,9.27
2017-11-25T21:45:59.456Z,9.03
2017-11-25T21:48:27.751Z,11.17
2017-11-25T21:50:56.036Z,10.17
2017-11-25T21:53:24.385Z,11.33
2017-11-25T21:55:54.175Z,10.87
2017-11-25T21:58:22.474Z,11.73
2017-11-25T22:00:51.608Z,12.97
2017-11-25T22:03:19.889Z,12.13
2017-11-25T22:05:48.168Z,13.77
2017-11-25T22:08:18.200Z,11.63
2017-11-25T22:10:46.497Z,15.00
2017-11-25T22:13:14.813Z,13.50
2017-11-25T22:15:46.630Z,15.63
2017-11-25T22:18:16.840Z,14.60
2017-11-25T22:20:45.124Z,14.23
2017-11-25T22:23:13.449Z,13.47
2017-11-25T22:25:41.726Z,17.87
2017-11-25T22:28:11.523Z,15.30
2017-11-25T22:30:39.863Z,15.57
2017-11-25T22:33:08.150Z,14.30
2017-11-25T22:35:36.440Z,17.17
2017-11-25T22:38:05.433Z,16.77
2017-11-25T22:40:34.485Z,16.03
2017-11-25T22:43:03.172Z,19.83
2017-11-25T22:45:32.308Z,18.50
2017-11-25T22:48:02.099Z,18.27
2017-11-25T22:50:30.388Z,21.20
2017-11-25T22:52:58.712Z,18.30
2017-11-25T22:55:26.994Z,18.17
2017-11-25T22:57:56.428Z,17.67
2017-11-25T23:00:24.762Z,17.70
2017-11-25T23:02:53.041Z,17.93
2017-11-25T23:05:21.318Z,16.73
2017-11-25T23:07:49.675Z,16.67
2017-11-25T23:10:19.110Z,15.57
2017-11-25T23:12:47.395Z,14.40
2017-11-25T23:15:15.726Z,14.17
2017-11-25T23:17:44.772Z,15.10
2017-11-25T23:20:13.111Z,18.30
2017-11-25T23:22:41.474Z,17.43
2017-11-25T23:25:11.318Z,14.73
2017-11-25T23:27:39.991Z,22.33
2017-11-25T23:30:08.340Z,15.63
2017-11-25T23:32:36.627Z,16.53
2017-11-25T23:35:05.672Z,15.40
2017-11-25T23:37:34.007Z,21.50
2017-11-25T23:40:02.308Z,16.03
2017-11-25T23:42:30.584Z,19.53
2017-11-25T23:44:58.921Z,17.17
2017-11-25T23:47:27.220Z,20.07
2017-11-25T23:49:55.519Z,15.90
2017-11-25T23:52:25.348Z,17.30
2017-11-25T23:54:53.628Z,16.00
2017-11-25T23:57:21.902Z,17.40
2017-11-25T23:59:51.325Z,15.07
